Time;durP1;ratioP1;P1;durP2;ratioP2;P2;SDS_P1;SDS_P2;PMS_P1;PMS_P2;Temp;Humidity;BMP_temperature;BMP_pressure;BME280_temperature;BME280_humidity;BME280_pressure;Samples;Min_cycle;Max_cycle;Signal;HPM_P1;HPM_P2
2021/04/03 00:00:35;;;;;;;9.83;3.30;;;15.10;57.90;;;;;;4950847;29;20248;-85
2021/04/03 00:03:04;;;;;;;7.17;3.17;;;14.80;58.60;;;;;;4969390;28;20552;-84
2021/04/03 00:05:32;;;;;;;3.83;2.97;;;14.50;58.80;;;;;;4957875;29;20649;-85
2021/04/03 00:08:03;;;;;;;6.20;2.93;;;14.40;59.00;;;;;;4954589;29;20518;-84
2021/04/03 00:10:52;;;;;;;4.23;2.80;;;14.30;59.00;;;;;;4958562;29;20325;-86
2021/04/03 00:13:24;;;;;;;3.33;2.60;;;14.40;59.40;;;;;;4961305;28;20213;-84
2021/04/03 00:15:53;;;;;;;6.63;2.80;;;14.40;58.90;;;;;;4959214;28;20293;-84
2021/04/03 00:18:20;;;;;;;6.03;3.10;;;14.40;58.70;;;;;;4962689;28;20228;-84
2021/04/03 00:20:49;;;;;;;5.97;3.20;;;14.40;59.10;;;;;;4948650;28;20250;-83
2021/04/03 00:23:20;;;;;;;6.33;3.67;;;14.40;59.50;;;;;;4945291;29;20222;-84
2021/04/03 00:25:50;;;;;;;7.10;3.60;;;14.30;60.40;;;;;;4967215;28;20256;-84
2021/04/03 00:28:18;;;;;;;6.77;3.17;;;14.20;61.10;;;;;;4957750;28;20214;-84
2021/04/03 00:30:45;;;;;;;5.17;3.30;;;14.20;61.40;;;;;;4957720;28;20230;-84
2021/04/03 00:33:13;;;;;;;11.00;3.00;;;14.20;61.30;;;;;;4958098;29;20214;-85
2021/04/03 00:35:44;;;;;;;5.67;3.23;;;14.30;61.20;;;;;;4961086;29;20221;-85
2021/04/03 00:38:12;;;;;;;7.43;3.60;;;14.30;61.40;;;;;;4960839;29;20540;-84
2021/04/03 00:40:42;;;;;;;7.53;3.10;;;14.30;61.60;;;;;;4972204;28;20216;-84
2021/04/03 00:43:20;;;;;;;5.47;3.07;;;14.40;61.50;;;;;;4958832;28;20658;-84
2021/04/03 00:45:48;;;;;;;8.17;3.60;;;14.30;61.40;;;;;;4960529;28;20256;-85
2021/04/03 00:48:16;;;;;;;5.53;3.00;;;14.30;61.10;;;;;;4957168;28;20622;-85
2021/04/03 00:50:45;;;;;;;6.50;3.60;;;14.40;60.60;;;;;;4961349;28;20588;-84
2021/04/03 00:53:17;;;;;;;9.47;3.60;;;14.40;60.60;;;;;;4953595;29;20232;-84
2021/04/03 00:55:45;;;;;;;8.20;3.30;;;14.40;60.60;;;;;;4955525;28;20236;-85
2021/04/03 00:58:13;;;;;;;5.90;3.13;;;14.40;60.50;;;;;;4957604;29;20243;-84
2021/04/03 01:00:41;;;;;;;5.10;3.40;;;14.40;60.50;;;;;;4957447;29;20233;-85
2021/04/03 01:03:08;;;;;;;16.23;4.03;;;14.30;59.70;;;;;;4968521;28;20221;-84
2021/04/03 01:05:35;;;;;;;8.73;3.70;;;14.30;58.50;;;;;;4959689;28;20214;-84
2021/04/03 01:08:03;;;;;;;8.27;3.73;;;14.00;58.70;;;;;;4958015;29;20288;-84
2021/04/03 01:10:34;;;;;;;7.13;4.40;;;13.90;58.80;;;;;;4944122;28;20632;-84
2021/04/03 01:13:25;;;;;;;7.83;3.37;;;13.80;59.20;;;;;;4957894;29;20236;-84
2021/04/03 01:16:19;;;;;;;6.83;3.73;;;13.80;59.90;;;;;;4972512;28;20562;-84
2021/04/03 01:19:11;;;;;;;5.87;3.50;;;13.80;59.80;;;;;;4969859;28;20661;-84
2021/04/03 01:22:00;;;;;;;5.20;3.80;;;13.80;60.00;;;;;;4956336;29;20337;-84
2021/04/03 01:24:41;;;;;;;8.53;3.77;;;13.70;60.00;;;;;;4961602;28;20217;-85
2021/04/03 01:27:23;;;;;;;9.33;4.27;;;13.70;59.60;;;;;;4963758;28;20630;-85
2021/04/03 01:30:04;;;;;;;7.37;4.43;;;13.70;59.20;;;;;;4957211;28;20280;-84
2021/04/03 01:33:03;;;;;;;5.77;4.53;;;13.70;58.70;;;;;;4954732;29;20244;-86
2021/04/03 01:35:38;;;;;;;9.27;4.53;;;13.60;58.30;;;;;;4951627;29;20602;-85
2021/04/03 01:38:14;;;;;;;11.30;4.27;;;13.60;58.30;;;;;;4961596;28;20230;-84
2021/04/03 01:40:44;;;;;;;11.63;4.93;;;13.50;58.70;;;;;;4953934;28;20313;-84
2021/04/03 01:43:17;;;;;;;9.50;4.67;;;13.50;59.00;;;;;;4958671;28;20225;-84
2021/04/03 01:45:45;;;;;;;8.20;4.57;;;13.50;58.10;;;;;;4962911;28;20272;-85
2021/04/03 01:48:16;;;;;;;7.47;4.00;;;13.50;58.00;;;;;;4961709;28;20213;-84
2021/04/03 01:50:46;;;;;;;6.87;4.43;;;13.30;57.70;;;;;;4961246;29;20630;-84
2021/04/03 01:53:14;;;;;;;9.73;4.60;;;13.30;57.40;;;;;;4961315;29;20245;-86
2021/04/03 01:55:46;;;;;;;10.37;4.20;;;13.40;57.40;;;;;;4961088;29;20210;-84
2021/04/03 01:58:15;;;;;;;10.17;4.77;;;13.40;57.80;;;;;;4962829;28;20212;-84
2021/04/03 02:00:44;;;;;;;9.30;5.23;;;13.50;57.00;;;;;;4964555;28;20257;-84
2021/04/03 02:03:14;;;;;;;8.43;4.67;;;13.50;56.60;;;;;;4960328;29;20213;-84
2021/04/03 02:05:42;;;;;;;5.67;4.67;;;13.60;56.90;;;;;;4969085;28;20696;-85
2021/04/03 02:08:13;;;;;;;5.27;4.40;;;13.60;57.40;;;;;;4971480;28;20218;-83
2021/04/03 02:10:41;;;;;;;8.23;4.97;;;13.50;57.90;;;;;;4959153;29;20234;-84
2021/04/03 02:13:13;;;;;;;9.87;5.73;;;13.40;58.10;;;;;;4965293;28;20300;-85
2021/04/03 02:15:44;;;;;;;11.50;5.13;;;13.40;58.50;;;;;;4960933;28;20213;-84
2021/04/03 02:18:12;;;;;;;9.30;6.33;;;13.30;58.50;;;;;;4960847;28;20293;-84
2021/04/03 02:20:40;;;;;;;12.10;6.57;;;13.20;58.60;;;;;;4959074;28;20217;-85
2021/04/03 02:23:11;;;;;;;8.07;6.20;;;13.20;59.10;;;;;;4960007;28;20228;-84
2021/04/03 02:25:38;;;;;;;13.00;8.83;;;13.10;59.50;;;;;;4958440;28;20228;-85
2021/04/03 02:28:05;;;;;;;16.97;8.20;;;13.10;60.30;;;;;;4967420;28;20229;-84
2021/04/03 02:30:32;;;;;;;15.80;7.70;;;13.00;61.00;;;;;;4962806;28;20556;-84
2021/04/03 02:32:59;;;;;;;10.60;8.63;;;13.10;61.40;;;;;;4960463;29;20214;-84
2021/04/03 02:35:29;;;;;;;15.50;8.13;;;13.10;61.90;;;;;;4960916;28;20213;-84
2021/04/03 02:38:01;;;;;;;12.10;8.30;;;13.10;62.10;;;;;;4951556;29;20214;-84
2021/04/03 02:40:31;;;;;;;14.97;6.63;;;13.10;62.40;;;;;;4960890;29;20652;-84
2021/04/03 02:43:33;;;;;;;10.93;7.93;;;13.00;62.40;;;;;;4960815;28;20293;-84
2021/04/03 02:46:20;;;;;;;15.47;7.90;;;13.00;62.10;;;;;;4970015;28;20638;-85
2021/04/03 02:48:52;;;;;;;15.20;9.00;;;12.90;62.70;;;;;;4965568;28;20543;-84
2021/04/03 02:51:43;;;;;;;10.70;9.33;;;12.80;62.70;;;;;;4946600;28;20325;-84
2021/04/03 02:54:14;;;;;;;15.10;10.03;;;12.80;63.10;;;;;;4960072;28;20224;-84
2021/04/03 02:56:44;;;;;;;12.07;7.87;;;12.70;63.20;;;;;;4960298;28;20276;-83
2021/04/03 02:59:24;;;;;;;14.07;9.43;;;12.70;63.40;;;;;;4960497;28;20253;-84
2021/04/03 03:01:54;;;;;;;17.00;9.37;;;12.70;63.30;;;;;;4962287;28;20227;-84
2021/04/03 03:04:26;;;;;;;10.83;9.07;;;12.60;63.50;;;;;;4961526;28;20374;-84
2021/04/03 03:06:55;;;;;;;18.87;9.53;;;12.60;63.90;;;;;;4958889;28;21042;-84
2021/04/03 03:09:23;;;;;;;15.47;8.90;;;12.60;64.30;;;;;;4960621;28;20248;-85
2021/04/03 03:11:58;;;;;;;12.57;8.97;;;12.60;64.50;;;;;;4962969;28;20237;-85
2021/04/03 03:14:30;;;;;;;12.20;8.03;;;12.60;64.80;;;;;;4942967;28;20214;-84
2021/04/03 03:17:21;;;;;;;19.07;11.03;;;12.60;65.10;;;;;;4945122;28;20270;-84
2021/04/03 03:19:53;;;;;;;10.60;9.13;;;12.50;65.40;;;;;;4942978;29;20536;-84
2021/04/03 03:22:23;;;;;;;15.50;9.40;;;12.40;65.80;;;;;;4971585;28;20277;-85
2021/04/03 03:24:50;;;;;;;14.73;10.13;;;12.30;66.00;;;;;;4965832;28;20215;-84
2021/04/03 03:27:20;;;;;;;16.70;12.93;;;12.30;66.60;;;;;;4958496;28;20225;-84
2021/04/03 03:29:48;;;;;;;20.40;12.67;;;12.20;67.70;;;;;;4961297;29;20647;-84
2021/04/03 03:32:16;;;;;;;13.73;11.17;;;12.20;68.10;;;;;;4976841;28;20300;-84
2021/04/03 03:34:43;;;;;;;14.80;10.67;;;12.20;68.10;;;;;;4973701;28;20378;-83
2021/04/03 03:37:10;;;;;;;13.37;9.27;;;12.10;67.70;;;;;;4960864;29;20210;-84
2021/04/03 03:39:41;;;;;;;14.30;8.57;;;12.10;67.60;;;;;;4962926;28;20234;-84
2021/04/03 03:42:09;;;;;;;21.40;8.10;;;12.10;67.30;;;;;;4961214;28;20221;-86
2021/04/03 03:44:36;;;;;;;13.40;8.30;;;12.10;67.00;;;;;;4961101;28;20211;-83
2021/04/03 03:47:03;;;;;;;11.63;7.97;;;12.10;66.60;;;;;;4960714;28;20284;-84
2021/04/03 03:49:33;;;;;;;12.03;7.47;;;12.10;66.20;;;;;;4960537;28;20609;-84
2021/04/03 03:52:00;;;;;;;11.30;8.10;;;12.20;66.10;;;;;;4961333;29;20233;-86
2021/04/03 03:54:27;;;;;;;9.93;7.53;;;12.20;66.10;;;;;;4961186;29;20642;-86
2021/04/03 03:56:54;;;;;;;11.10;7.90;;;12.30;66.10;;;;;;4961031;29;20214;-84
2021/04/03 03:59:21;;;;;;;15.97;7.97;;;12.30;65.70;;;;;;4960944;28;20309;-84
2021/04/03 04:01:48;;;;;;;13.20;6.33;;;12.30;65.50;;;;;;4962576;28;20214;-85
2021/04/03 04:04:15;;;;;;;9.07;6.17;;;12.30;64.90;;;;;;4972360;28;20643;-84
2021/04/03 04:06:42;;;;;;;9.73;6.07;;;12.30;64.50;;;;;;4965467;28;20221;-84
2021/04/03 04:09:09;;;;;;;9.67;6.03;;;12.40;64.50;;;;;;4948471;28;20209;-83
2021/04/03 04:11:36;;;;;;;10.83;7.23;;;12.50;64.80;;;;;;4957894;29;20560;-84
2021/04/03 04:14:03;;;;;;;9.20;6.37;;;12.50;64.90;;;;;;4959717;29;20226;-84
2021/04/03 04:16:32;;;;;;;10.53;6.70;;;12.60;64.90;;;;;;4961023;29;20210;-84
2021/04/03 04:19:03;;;;;;;8.17;5.50;;;12.60;65.20;;;;;;4956341;29;20301;-84
2021/04/03 04:21:31;;;;;;;8.90;5.63;;;12.60;65.20;;;;;;4940602;28;20633;-84
2021/04/03 04:23:58;;;;;;;11.07;6.00;;;12.60;65.00;;;;;;4974005;28;20214;-84
2021/04/03 04:26:25;;;;;;;8.47;6.30;;;12.50;64.90;;;;;;4950931;29;20277;-83
2021/04/03 04:28:53;;;;;;;9.20;6.07;;;12.50;64.50;;;;;;4942954;28;20623;-86
2021/04/03 04:31:20;;;;;;;12.87;6.30;;;12.40;63.80;;;;;;4959892;29;20260;-85
2021/04/03 04:33:49;;;;;;;12.57;6.23;;;12.40;63.50;;;;;;4971665;28;20223;-86
2021/04/03 04:36:19;;;;;;;7.37;5.53;;;12.30;63.40;;;;;;4947305;29;20220;-85
2021/04/03 04:38:49;;;;;;;10.17;6.40;;;12.30;63.70;;;;;;4959497;28;20214;-84
2021/04/03 04:41:16;;;;;;;10.57;6.57;;;12.30;64.00;;;;;;4960357;29;20297;-84
2021/04/03 04:43:49;;;;;;;11.43;6.90;;;12.30;64.20;;;;;;4960200;29;20218;-84
2021/04/03 04:46:16;;;;;;;9.67;6.57;;;12.30;64.40;;;;;;4961121;29;20206;-85
2021/04/03 04:48:44;;;;;;;11.83;7.87;;;12.30;64.80;;;;;;4959793;29;20245;-84
2021/04/03 04:51:18;;;;;;;16.40;8.33;;;12.30;65.00;;;;;;4956866;29;20229;-84
2021/04/03 04:53:47;;;;;;;10.83;8.50;;;12.30;65.20;;;;;;4956425;29;20224;-84
2021/04/03 04:56:13;;;;;;;16.13;11.47;;;12.30;65.70;;;;;;4967070;28;20220;-84
2021/04/03 04:58:41;;;;;;;18.20;11.27;;;12.20;66.50;;;;;;4970822;28;20222;-84
2021/04/03 05:01:08;;;;;;;15.90;12.07;;;12.20;67.70;;;;;;4956816;29;20213;-84
2021/04/03 05:03:37;;;;;;;21.43;12.33;;;12.20;68.30;;;;;;4956668;29;20231;-84
2021/04/03 05:06:07;;;;;;;20.90;10.80;;;12.20;68.70;;;;;;4956304;29;20288;-83
2021/04/03 05:08:34;;;;;;;18.17;11.27;;;12.20;68.80;;;;;;4957306;28;20220;-84
2021/04/03 05:11:01;;;;;;;14.53;10.50;;;12.20;68.80;;;;;;4961290;28;20324;-84
2021/04/03 05:13:29;;;;;;;20.43;10.37;;;12.10;68.70;;;;;;4960765;28;20216;-84
2021/04/03 05:15:56;;;;;;;14.13;10.67;;;12.10;68.80;;;;;;4956310;29;20217;-84
2021/04/03 05:18:23;;;;;;;18.43;12.10;;;12.00;68.90;;;;;;4956403;28;20583;-83
2021/04/03 05:20:51;;;;;;;20.40;10.83;;;12.00;69.10;;;;;;4956903;29;20241;-84
2021/04/03 05:23:19;;;;;;;22.13;11.80;;;12.00;69.30;;;;;;4958983;28;20242;-86
2021/04/03 05:25:46;;;;;;;21.67;13.70;;;12.00;69.60;;;;;;4956597;28;20243;-85
2021/04/03 05:28:13;;;;;;;22.80;12.30;;;12.00;70.20;;;;;;4935827;29;20218;-84
2021/04/03 05:30:42;;;;;;;18.37;12.93;;;12.00;70.70;;;;;;4953918;29;20238;-84
2021/04/03 05:33:10;;;;;;;20.97;12.73;;;12.10;70.80;;;;;;4955162;29;20221;-84
2021/04/03 05:35:37;;;;;;;24.07;16.07;;;12.10;70.90;;;;;;4957189;29;20221;-83
2021/04/03 05:38:04;;;;;;;23.57;15.17;;;12.10;71.20;;;;;;4968047;28;20267;-84
2021/04/03 05:40:32;;;;;;;24.57;17.27;;;12.20;71.60;;;;;;4963139;28;20275;-85
2021/04/03 05:43:03;;;;;;;31.00;18.67;;;12.30;72.20;;;;;;4951816;29;20214;-84
2021/04/03 05:45:34;;;;;;;39.53;21.93;;;12.40;72.80;;;;;;4948379;28;20301;-84
2021/04/03 05:48:04;;;;;;;43.30;26.93;;;12.50;73.20;;;;;;4956299;29;20298;-85
2021/04/03 05:50:32;;;;;;;42.90;25.00;;;12.60;74.20;;;;;;4957590;28;20575;-84
2021/04/03 05:53:02;;;;;;;38.90;26.43;;;12.80;74.70;;;;;;4959459;28;20209;-84
2021/04/03 05:55:30;;;;;;;39.03;27.13;;;12.90;75.00;;;;;;4968076;28;20220;-85
2021/04/03 05:57:57;;;;;;;44.63;29.63;;;13.10;75.50;;;;;;4964381;28;20245;-84
2021/04/03 06:00:24;;;;;;;41.10;28.40;;;13.20;76.20;;;;;;4958878;29;20313;-86
2021/04/03 06:02:52;;;;;;;44.47;30.33;;;13.30;76.80;;;;;;4960208;28;20214;-84
2021/04/03 06:05:19;;;;;;;37.60;30.50;;;13.50;77.10;;;;;;4958418;28;20213;-84
2021/04/03 06:07:46;;;;;;;49.07;29.90;;;13.60;77.10;;;;;;4952523;29;20249;-84
2021/04/03 06:10:13;;;;;;;42.43;31.40;;;13.70;77.20;;;;;;4956985;28;20209;-84
2021/04/03 06:12:43;;;;;;;45.17;30.57;;;13.90;77.30;;;;;;4948496;29;20230;-85
2021/04/03 06:15:35;;;;;;;40.03;30.00;;;14.00;77.30;;;;;;4963140;28;20222;-84
2021/04/03 06:18:11;;;;;;;42.17;31.37;;;14.20;77.70;;;;;;4964694;28;20217;-84
2021/04/03 06:20:42;;;;;;;48.90;32.53;;;14.30;77.60;;;;;;4947965;28;20599;-85
2021/04/03 06:23:12;;;;;;;44.17;31.63;;;14.40;77.80;;;;;;4952630;29;20584;-83
2021/04/03 06:25:58;;;;;;;41.33;31.27;;;14.50;77.80;;;;;;4953039;29;20214;-84
2021/04/03 06:28:33;;;;;;;46.57;31.93;;;14.70;78.20;;;;;;4939157;29;20207;-85
2021/04/03 06:31:17;;;;;;;40.33;30.87;;;14.80;77.90;;;;;;4964752;28;20256;-85
2021/04/03 06:34:08;;;;;;;43.60;31.43;;;14.90;77.90;;;;;;4961194;29;20511;-84
2021/04/03 06:36:45;;;;;;;41.50;30.30;;;15.00;77.70;;;;;;4959338;29;20221;-85
2021/04/03 06:39:12;;;;;;;39.53;30.67;;;15.10;78.00;;;;;;4961585;29;20244;-84
2021/04/03 06:41:40;;;;;;;41.63;31.50;;;15.20;78.00;;;;;;4953711;29;20218;-84
2021/04/03 06:44:09;;;;;;;43.53;30.73;;;15.20;78.20;;;;;;4956244;29;20236;-84
2021/04/03 06:46:38;;;;;;;42.13;30.07;;;15.30;78.40;;;;;;4961614;29;20214;-85
2021/04/03 06:49:07;;;;;;;48.70;30.53;;;15.40;78.40;;;;;;4961187;29;20221;-84
2021/04/03 06:51:35;;;;;;;44.57;30.10;;;15.50;78.40;;;;;;4975403;28;20229;-84
2021/04/03 06:54:05;;;;;;;38.63;29.30;;;15.60;78.50;;;;;;4968901;28;20229;-84
2021/04/03 06:56:34;;;;;;;35.37;27.57;;;15.70;78.60;;;;;;4960068;29;20651;-84
2021/04/03 06:59:04;;;;;;;44.83;29.40;;;15.80;78.40;;;;;;4941642;29;20219;-84
2021/04/03 07:01:49;;;;;;;38.27;27.37;;;15.80;78.40;;;;;;4942150;29;20222;-84
2021/04/03 07:04:25;;;;;;;38.47;28.53;;;15.90;78.60;;;;;;4941846;29;20301;-84
2021/04/03 07:06:58;;;;;;;41.07;27.73;;;15.90;78.70;;;;;;4985535;28;20232;-84
2021/04/03 07:09:25;;;;;;;37.27;27.30;;;16.00;78.60;;;;;;4964844;28;20292;-84
2021/04/03 07:11:57;;;;;;;36.97;25.57;;;16.00;78.70;;;;;;4964233;28;20241;-85
2021/04/03 07:14:25;;;;;;;35.67;25.33;;;16.10;78.80;;;;;;4961665;29;20218;-84
2021/04/03 07:16:52;;;;;;;40.63;28.10;;;16.10;78.80;;;;;;4961696;29;20264;-84
2021/04/03 07:19:21;;;;;;;32.70;25.07;;;16.20;78.80;;;;;;4956138;29;20635;-84
2021/04/03 07:21:49;;;;;;;39.27;26.13;;;16.20;78.90;;;;;;4942349;29;20246;-84
2021/04/03 07:24:18;;;;;;;31.80;23.40;;;16.30;78.90;;;;;;4980834;28;20213;-84
2021/04/03 07:26:51;;;;;;;39.97;25.93;;;16.30;79.00;;;;;;4981300;28;20295;-84
2021/04/03 07:29:40;;;;;;;41.97;27.63;;;16.40;79.00;;;;;;4976188;28;20634;-84
2021/04/03 07:32:28;;;;;;;40.13;27.67;;;16.40;79.20;;;;;;4973649;28;20653;-85
2021/04/03 07:34:55;;;;;;;34.77;26.13;;;16.60;78.90;;;;;;4977625;28;20553;-84
2021/04/03 07:37:37;;;;;;;37.17;26.57;;;16.70;78.70;;;;;;4959643;29;20210;-84
2021/04/03 07:40:12;;;;;;;38.90;27.63;;;16.70;78.60;;;;;;4959749;29;20213;-84
2021/04/03 07:42:52;;;;;;;32.27;25.20;;;16.70;78.20;;;;;;4960380;29;20241;-85
2021/04/03 07:45:41;;;;;;;34.77;25.37;;;16.70;78.20;;;;;;4959844;28;20308;-85
2021/04/03 07:48:15;;;;;;;34.40;26.77;;;16.70;78.60;;;;;;4964631;28;20222;-84
2021/04/03 07:50:44;;;;;;;38.70;25.97;;;16.70;78.50;;;;;;4944816;29;20256;-84
2021/04/03 07:53:41;;;;;;;31.57;25.47;;;16.70;78.60;;;;;;4960617;29;20606;-85
2021/04/03 07:56:10;;;;;;;37.27;25.60;;;16.70;78.70;;;;;;4959962;29;20202;-84
2021/04/03 07:58:46;;;;;;;32.40;23.73;;;16.70;78.60;;;;;;4959524;28;20210;-84
2021/04/03 08:01:21;;;;;;;32.80;23.40;;;16.70;78.70;;;;;;4960825;28;20217;-85
2021/04/03 08:03:57;;;;;;;38.60;25.17;;;16.70;78.90;;;;;;4976406;28;20540;-84
2021/04/03 08:06:38;;;;;;;28.53;23.63;;;16.70;79.20;;;;;;4960242;29;20260;-85
2021/04/03 08:09:10;;;;;;;33.63;24.07;;;16.80;79.10;;;;;;4956669;29;20206;-85
2021/04/03 08:11:45;;;;;;;35.80;24.60;;;16.90;79.00;;;;;;4968973;28;20228;-84
2021/04/03 08:14:13;;;;;;;30.10;23.43;;;16.90;78.90;;;;;;4978371;28;20239;-84
2021/04/03 08:16:42;;;;;;;36.33;25.67;;;17.00;78.80;;;;;;4965274;28;20611;-85
2021/04/03 08:19:10;;;;;;;36.03;24.97;;;17.00;78.60;;;;;;4978437;28;20571;-84
2021/04/03 08:21:46;;;;;;;31.07;24.63;;;17.00;78.60;;;;;;4967485;28;20333;-84
2021/04/03 08:24:14;;;;;;;33.00;22.93;;;17.00;78.80;;;;;;4973308;28;20209;-84
2021/04/03 08:26:42;;;;;;;38.00;24.50;;;16.90;78.90;;;;;;4969096;28;20225;-84
2021/04/03 08:29:34;;;;;;;33.63;23.80;;;16.90;79.20;;;;;;4972094;28;20276;-84
2021/04/03 08:32:02;;;;;;;39.90;23.90;;;16.90;79.60;;;;;;4961120;28;20244;-86
2021/04/03 08:34:30;;;;;;;28.83;22.50;;;16.80;79.50;;;;;;4960429;28;20726;-84
2021/04/03 08:36:57;;;;;;;29.50;22.10;;;16.80;79.60;;;;;;4958739;29;20233;-84
2021/04/03 08:39:25;;;;;;;29.67;22.33;;;16.90;79.70;;;;;;4976058;28;20280;-83
2021/04/03 08:41:55;;;;;;;29.50;24.23;;;16.80;79.70;;;;;;4962285;28;20284;-84
2021/04/03 08:44:27;;;;;;;36.53;23.90;;;16.80;79.80;;;;;;4957589;29;20228;-85
2021/04/03 08:47:02;;;;;;;27.07;22.60;;;16.70;80.00;;;;;;4958372;29;20320;-85
2021/04/03 08:49:34;;;;;;;30.27;21.57;;;16.70;80.30;;;;;;4969131;28;20253;-85
2021/04/03 08:52:06;;;;;;;65.00;23.83;;;16.70;80.60;;;;;;4955512;28;20229;-86
2021/04/03 08:54:41;;;;;;;29.23;16.87;;;16.60;81.00;;;;;;4959628;28;20284;-82
2021/04/03 08:57:31;;;;;;;22.43;12.00;;;16.60;81.10;;;;;;4953613;28;20268;-83
2021/04/03 09:00:00;;;;;;;28.23;9.80;;;16.60;81.00;;;;;;4956230;28;20296;-83
2021/04/03 09:02:32;;;;;;;17.57;8.83;;;16.80;79.90;;;;;;4956479;29;20240;-84
2021/04/03 09:05:04;;;;;;;19.47;8.70;;;16.90;79.20;;;;;;4956697;28;20649;-84
2021/04/03 09:07:36;;;;;;;21.00;7.67;;;17.10;77.80;;;;;;4953004;29;20229;-84
2021/04/03 09:10:03;;;;;;;17.43;7.83;;;17.30;76.70;;;;;;4954145;28;20218;-82
2021/04/03 09:12:30;;;;;;;19.90;7.10;;;17.50;76.00;;;;;;4964971;28;20240;-82
2021/04/03 09:14:57;;;;;;;20.23;6.57;;;17.60;74.80;;;;;;4956059;29;20276;-85
2021/04/03 09:17:28;;;;;;;21.70;6.07;;;17.70;74.20;;;;;;4956393;28;20209;-84
2021/04/03 09:20:13;;;;;;;15.40;5.33;;;17.70;73.30;;;;;;4955888;29;20717;-85
2021/04/03 09:22:42;;;;;;;15.67;6.20;;;17.60;73.40;;;;;;4965687;28;20261;-86
2021/04/03 09:25:15;;;;;;;19.43;5.70;;;17.70;73.20;;;;;;4956770;28;20301;-84
2021/04/03 09:27:55;;;;;;;28.63;5.77;;;17.80;72.50;;;;;;4956742;28;20276;-85
2021/04/03 09:30:34;;;;;;;16.73;5.00;;;17.80;71.80;;;;;;4955887;29;20304;-84
2021/04/03 09:33:22;;;;;;;13.57;4.30;;;17.80;71.50;;;;;;4959434;28;20222;-86
2021/04/03 09:35:50;;;;;;;16.00;4.83;;;17.80;70.90;;;;;;4956741;28;20214;-86
2021/04/03 09:38:29;;;;;;;12.10;4.57;;;17.60;71.00;;;;;;4956262;29;20261;-84
2021/04/03 09:40:56;;;;;;;13.87;4.67;;;17.50;71.20;;;;;;4956032;29;20213;-85
2021/04/03 09:43:42;;;;;;;10.53;4.33;;;17.40;71.00;;;;;;4956492;28;20202;-86
2021/04/03 09:46:10;;;;;;;20.90;5.30;;;17.40;70.90;;;;;;4953826;29;20221;-84
2021/04/03 09:48:37;;;;;;;21.50;4.90;;;17.40;71.20;;;;;;4946381;28;20218;-86
2021/04/03 09:51:05;;;;;;;20.83;4.73;;;17.40;70.20;;;;;;4944766;28;20234;-84
2021/04/03 09:53:32;;;;;;;17.27;4.03;;;17.50;69.40;;;;;;4954512;28;20305;-87
2021/04/03 09:56:01;;;;;;;12.80;4.47;;;17.60;69.80;;;;;;4956362;29;20217;-84
2021/04/03 09:58:28;;;;;;;15.20;4.07;;;17.70;68.50;;;;;;4956055;28;20638;-84
2021/04/03 10:00:55;;;;;;;15.60;5.00;;;17.60;68.30;;;;;;4955870;29;20555;-84
2021/04/03 10:03:22;;;;;;;19.80;3.60;;;17.60;68.90;;;;;;4956293;28;20228;-83
2021/04/03 10:05:50;;;;;;;10.33;3.00;;;17.60;67.80;;;;;;4957998;29;20769;-84
2021/04/03 10:08:17;;;;;;;16.00;4.90;;;17.50;67.20;;;;;;4955882;28;20672;-84
2021/04/03 10:10:44;;;;;;;11.33;3.70;;;17.40;68.10;;;;;;4956740;28;20221;-85
2021/04/03 10:13:11;;;;;;;20.90;4.40;;;17.30;68.10;;;;;;4959167;29;20244;-83
2021/04/03 10:15:38;;;;;;;11.57;3.37;;;17.30;68.80;;;;;;4957289;28;20226;-86
2021/04/03 10:18:05;;;;;;;10.23;3.13;;;17.20;68.30;;;;;;4956841;29;20218;-85
2021/04/03 10:20:35;;;;;;;9.77;3.33;;;17.20;68.40;;;;;;4959859;28;20214;-84
2021/04/03 10:23:02;;;;;;;16.77;3.43;;;17.10;68.10;;;;;;4928816;29;20218;-82
2021/04/03 10:25:29;;;;;;;12.27;2.53;;;16.90;68.40;;;;;;4913882;29;20230;-84
2021/04/03 10:27:56;;;;;;;8.87;2.67;;;16.80;68.70;;;;;;4924463;29;20222;-83
2021/04/03 10:30:23;;;;;;;12.30;3.20;;;16.70;68.80;;;;;;4925519;29;20249;-86
2021/04/03 10:32:53;;;;;;;9.07;2.83;;;16.70;68.90;;;;;;4926748;29;20222;-84
2021/04/03 10:35:20;;;;;;;11.13;2.60;;;16.80;68.10;;;;;;4924583;29;20231;-84
2021/04/03 10:37:47;;;;;;;11.67;2.53;;;16.80;68.00;;;;;;4929547;29;20644;-85
2021/04/03 10:40:14;;;;;;;10.87;2.90;;;16.70;67.70;;;;;;4924388;29;20222;-85
2021/04/03 10:42:42;;;;;;;15.10;3.37;;;16.70;67.70;;;;;;4924219;29;20714;-86
2021/04/03 10:45:10;;;;;;;12.50;3.17;;;16.80;67.90;;;;;;4921389;29;20294;-84
2021/04/03 10:47:37;;;;;;;10.40;2.80;;;17.00;68.00;;;;;;4939797;29;20639;-84
2021/04/03 10:50:04;;;;;;;17.80;3.13;;;17.10;66.40;;;;;;4924327;29;20221;-84
2021/04/03 10:52:31;;;;;;;14.53;2.90;;;17.10;64.70;;;;;;4919886;29;20313;-84
2021/04/03 10:54:59;;;;;;;10.47;2.20;;;17.00;64.70;;;;;;4926346;29;20214;-84
2021/04/03 10:57:26;;;;;;;7.10;2.70;;;17.00;64.90;;;;;;4923435;29;20218;-84
2021/04/03 10:59:53;;;;;;;17.83;2.77;;;16.90;65.20;;;;;;4920565;29;20246;-84
2021/04/03 11:02:20;;;;;;;17.03;3.20;;;16.90;65.00;;;;;;4925854;29;20216;-86
2021/04/03 11:04:47;;;;;;;13.20;2.73;;;16.90;65.20;;;;;;4910200;29;20230;-86
2021/04/03 11:07:15;;;;;;;10.43;3.00;;;16.90;65.30;;;;;;4919897;28;20218;-83
2021/04/03 11:09:42;;;;;;;9.47;2.93;;;16.90;65.10;;;;;;4938138;29;20210;-86
2021/04/03 11:12:10;;;;;;;9.20;2.50;;;17.00;64.70;;;;;;4930505;29;20241;-84
2021/04/03 11:14:38;;;;;;;11.27;2.50;;;17.00;64.00;;;;;;4932326;29;20297;-84
2021/04/03 11:17:06;;;;;;;14.70;2.97;;;17.00;63.10;;;;;;4943763;29;20214;-86
2021/04/03 11:19:33;;;;;;;8.30;2.23;;;17.00;62.80;;;;;;4939098;29;20322;-85
2021/04/03 11:22:01;;;;;;;10.73;2.17;;;17.00;62.30;;;;;;4954030;28;20240;-85
2021/04/03 11:24:30;;;;;;;10.10;2.10;;;16.90;61.60;;;;;;4958591;28;20222;-83
2021/04/03 11:26:57;;;;;;;8.67;1.93;;;16.90;62.00;;;;;;4961968;28;20217;-84
2021/04/03 11:29:43;;;;;;;7.50;2.37;;;16.90;62.40;;;;;;4940914;29;20646;-84
2021/04/03 11:32:11;;;;;;;7.50;2.77;;;17.00;61.80;;;;;;4961147;28;20324;-85
2021/04/03 11:34:38;;;;;;;10.60;2.57;;;16.90;62.00;;;;;;4953888;28;20287;-85
2021/04/03 11:37:06;;;;;;;8.03;2.33;;;16.90;62.60;;;;;;4945660;28;20265;-84
2021/04/03 11:39:33;;;;;;;5.10;2.00;;;16.80;63.10;;;;;;4953444;28;20297;-83
2021/04/03 11:42:01;;;;;;;7.77;2.10;;;16.80;63.60;;;;;;4950542;29;20222;-84
2021/04/03 11:44:28;;;;;;;8.40;2.20;;;16.90;63.10;;;;;;4954631;28;20213;-84
2021/04/03 11:46:57;;;;;;;7.80;1.77;;;17.00;61.80;;;;;;4945151;29;20237;-84
2021/04/03 11:49:25;;;;;;;6.63;2.20;;;17.10;61.90;;;;;;4957925;28;20209;-85
2021/04/03 11:51:53;;;;;;;6.90;1.87;;;17.10;60.80;;;;;;4968529;28;20255;-86
2021/04/03 11:54:20;;;;;;;10.10;2.10;;;17.10;61.30;;;;;;4957923;28;20224;-83
2021/04/03 11:56:47;;;;;;;14.57;2.60;;;17.10;60.50;;;;;;4956845;28;20210;-86
2021/04/03 11:59:15;;;;;;;5.33;1.60;;;17.30;60.50;;;;;;4957404;29;20608;-80
2021/04/03 12:01:44;;;;;;;6.10;1.83;;;17.40;60.50;;;;;;4956829;28;20575;-85
2021/04/03 12:04:13;;;;;;;6.03;1.97;;;17.40;60.20;;;;;;4951974;28;20232;-83
2021/04/03 12:06:40;;;;;;;9.77;1.90;;;17.40;60.00;;;;;;4950873;29;20245;-83
2021/04/03 12:09:07;;;;;;;10.37;2.20;;;17.30;59.80;;;;;;4953984;28;20542;-84
2021/04/03 12:11:37;;;;;;;13.40;2.10;;;17.20;59.90;;;;;;4955961;28;20676;-83
2021/04/03 12:14:04;;;;;;;5.70;2.03;;;17.20;60.10;;;;;;4945102;28;20221;-85
2021/04/03 12:16:33;;;;;;;8.40;2.60;;;17.10;58.80;;;;;;4939171;29;20578;-83
2021/04/03 12:19:00;;;;;;;7.23;2.53;;;17.10;58.60;;;;;;4956031;28;20218;-84
2021/04/03 12:21:29;;;;;;;4.70;1.80;;;16.90;59.00;;;;;;4957129;28;20249;-83
2021/04/03 12:23:56;;;;;;;7.60;2.13;;;16.70;58.50;;;;;;4947786;28;20218;-85
2021/04/03 12:26:26;;;;;;;8.83;2.43;;;16.60;59.50;;;;;;4942161;29;20217;-83
2021/04/03 12:28:54;;;;;;;6.47;2.40;;;16.50;60.10;;;;;;4944550;28;20559;-84
2021/04/03 12:31:22;;;;;;;10.40;1.67;;;16.50;59.80;;;;;;4960328;28;20241;-86
2021/04/03 12:33:49;;;;;;;4.27;1.50;;;16.60;59.40;;;;;;4960474;28;20210;-82
2021/04/03 12:36:17;;;;;;;12.53;2.63;;;16.50;58.50;;;;;;4957275;28;20268;-84
2021/04/03 12:38:46;;;;;;;9.90;2.17;;;16.50;58.40;;;;;;4948087;28;20273;-85
2021/04/03 12:41:13;;;;;;;2.93;1.80;;;16.50;58.50;;;;;;4945445;28;20328;-85
2021/04/03 12:43:44;;;;;;;7.43;2.00;;;16.60;59.00;;;;;;4955788;28;20233;-85
2021/04/03 12:46:11;;;;;;;4.67;2.20;;;16.70;59.00;;;;;;4952284;28;20210;-84
2021/04/03 12:48:38;;;;;;;4.93;1.97;;;16.80;58.20;;;;;;4947391;28;20229;-85
2021/04/03 12:51:11;;;;;;;7.73;1.83;;;16.90;58.60;;;;;;4953872;28;20202;-86
2021/04/03 12:53:40;;;;;;;8.27;1.83;;;17.00;58.90;;;;;;4962584;28;20630;-86